Terminal Aerodrome Forecast
Issued by NWS

Home | Current Version | Previous Version | Text Only | Print | Product List | Glossary On
Versions: 1 2 3 4 5 6 7 8 9 10 11 12 13 14 15 16 17 18 19 20 21 22 23 24
562
FTUS41 KILN 170329 AAB
TAFLCK
TAF AMD
KLCK 170329Z 1703/1724 12005KT 4SM -SHRA BR OVC050
      TEMPO 1704/1707 1SM -SHRA OVC012
     FM170700 16008KT 2SM -SHRA BR OVC005
     FM171600 23014KT P6SM OVC012
     FM171900 25014G22KT P6SM OVC025
      AMD NOT SKED=

USA.gov is the U.S. government's official web portal to all federal, state and local government web resources and services.